createdAt,value
2019-02-02T00:00:30.952Z,47.57
2019-02-02T00:02:59.379Z,72.70
2019-02-02T00:05:27.804Z,74.20
2019-02-02T00:07:56.221Z,193.50
2019-02-02T00:10:24.673Z,52.40
2019-02-02T00:12:53.084Z,246.13
2019-02-02T00:15:21.516Z,87.67
2019-02-02T00:17:49.936Z,54.43
2019-02-02T00:20:18.352Z,47.30
2019-02-02T00:22:46.780Z,191.33
2019-02-02T00:25:15.272Z,156.43
2019-02-02T00:27:43.702Z,81.00
2019-02-02T00:30:15.087Z,72.83
2019-02-02T00:32:43.508Z,68.90
2019-02-02T00:35:12.260Z,65.93
2019-02-02T00:37:40.769Z,49.43
2019-02-02T00:40:17.809Z,46.13
2019-02-02T00:42:46.400Z,70.30
2019-02-02T00:45:22.473Z,48.33
2019-02-02T00:47:51.547Z,90.03
2019-02-02T00:50:20.413Z,49.37
2019-02-02T00:52:48.844Z,163.83
2019-02-02T00:55:18.611Z,135.70
2019-02-02T00:57:53.503Z,105.77
2019-02-02T01:00:19.476Z,247.90
2019-02-02T01:02:47.928Z,272.93
2019-02-02T01:05:18.693Z,37.60
2019-02-02T01:07:47.389Z,90.13
2019-02-02T01:10:31.078Z,94.70
2019-02-02T01:12:59.820Z,87.50
2019-02-02T01:15:28.480Z,111.53
2019-02-02T01:17:57.228Z,163.93
2019-02-02T01:20:25.720Z,134.97
2019-02-02T01:22:54.140Z,138.67
2019-02-02T01:25:22.553Z,99.33
2019-02-02T01:27:51.244Z,36.17
2019-02-02T01:30:21.516Z,32.33
2019-02-02T01:32:49.937Z,35.97
2019-02-02T01:35:19.439Z,38.10
2019-02-02T01:37:47.927Z,32.60
2019-02-02T01:40:27.041Z,32.97
2019-02-02T01:42:55.977Z,40.63
2019-02-02T01:45:28.749Z,37.10
2019-02-02T01:47:57.516Z,36.03
2019-02-02T01:50:27.272Z,34.53
2019-02-02T01:52:55.773Z,36.27
2019-02-02T01:55:24.328Z,34.63
2019-02-02T01:57:52.748Z,37.20
2019-02-02T02:00:29.987Z,36.53
2019-02-02T02:02:58.480Z,32.17
2019-02-02T02:05:26.965Z,31.17
2019-02-02T02:07:55.469Z,32.60
2019-02-02T02:10:23.881Z,32.23
2019-02-02T02:12:53.513Z,30.60
2019-02-02T02:15:22.069Z,28.97
2019-02-02T02:17:50.629Z,32.10
2019-02-02T02:20:20.389Z,34.00
2019-02-02T02:22:49.766Z,33.83
2019-02-02T02:25:19.712Z,38.13
2019-02-02T02:27:48.490Z,37.13
2019-02-02T02:30:18.536Z,35.27
2019-02-02T02:32:47.252Z,36.03
2019-02-02T02:35:15.817Z,38.10
2019-02-02T02:37:45.019Z,36.27
2019-02-02T02:40:24.686Z,37.43
2019-02-02T02:42:53.653Z,38.00
2019-02-02T02:45:22.310Z,37.30
2019-02-02T02:47:50.805Z,39.17
2019-02-02T02:50:22.316Z,38.77
2019-02-02T02:52:50.877Z,41.13
2019-02-02T02:55:19.308Z,40.70
2019-02-02T02:57:48.087Z,35.03
2019-02-02T03:00:22.097Z,38.07
2019-02-02T03:02:50.693Z,42.30
2019-02-02T03:05:19.954Z,40.80
2019-02-02T03:07:49.721Z,44.00
2019-02-02T03:10:20.282Z,37.47
2019-02-02T03:12:48.779Z,36.07
2019-02-02T03:15:18.433Z,37.77
2019-02-02T03:17:48.003Z,39.37
2019-02-02T03:20:16.939Z,36.40
2019-02-02T03:22:45.451Z,43.73
2019-02-02T03:25:16.401Z,42.53
2019-02-02T03:27:45.007Z,43.93
2019-02-02T03:30:15.766Z,46.07
2019-02-02T03:32:44.278Z,44.50
2019-02-02T03:35:15.028Z,48.53
2019-02-02T03:37:43.453Z,42.70
2019-02-02T03:40:14.409Z,50.70
2019-02-02T03:42:42.841Z,42.93
2019-02-02T03:45:14.205Z,42.50
2019-02-02T03:47:42.629Z,41.30
2019-02-02T03:50:12.398Z,41.77
2019-02-02T03:52:40.829Z,38.63
2019-02-02T03:55:11.996Z,38.93
2019-02-02T03:57:40.485Z,36.27
2019-02-02T04:00:17.484Z,35.83
2019-02-02T04:02:46.254Z,34.67
2019-02-02T04:05:18.724Z,33.27
2019-02-02T04:07:47.149Z,33.17
2019-02-02T04:10:15.809Z,31.73
2019-02-02T04:12:44.241Z,38.03
2019-02-02T04:15:17.609Z,39.63
2019-02-02T04:17:46.261Z,36.90
2019-02-02T04:20:19.851Z,37.40
2019-02-02T04:22:48.559Z,44.97
2019-02-02T04:25:19.306Z,58.03
2019-02-02T04:27:47.727Z,56.73
2019-02-02T04:30:18.484Z,103.60
2019-02-02T04:32:46.997Z,73.07
2019-02-02T04:35:15.544Z,52.80
2019-02-02T04:37:44.042Z,29.87
2019-02-02T04:40:14.560Z,30.30
2019-02-02T04:42:43.433Z,28.53
2019-02-02T04:45:17.026Z,28.40
2019-02-02T04:47:45.520Z,28.43
2019-02-02T04:50:16.652Z,39.53
2019-02-02T04:52:45.117Z,34.10
2019-02-02T04:55:15.381Z,34.93
2019-02-02T04:57:43.877Z,54.20
2019-02-02T05:00:18.697Z,101.93
2019-02-02T05:02:47.145Z,174.67
2019-02-02T05:05:17.213Z,97.57
2019-02-02T05:07:45.640Z,64.63
2019-02-02T05:10:21.966Z,197.70
2019-02-02T05:12:50.561Z,111.43
2019-02-02T05:15:38.314Z,150.10
2019-02-02T05:18:06.736Z,86.17
2019-02-02T05:20:35.173Z,162.70
2019-02-02T05:23:03.660Z,158.73
2019-02-02T05:25:32.076Z,146.63
2019-02-02T05:28:00.509Z,161.87
2019-02-02T05:30:31.237Z,153.87
2019-02-02T05:32:59.733Z,109.97
2019-02-02T05:35:28.148Z,127.83
2019-02-02T05:37:56.573Z,60.53
2019-02-02T05:40:24.988Z,94.47
2019-02-02T05:42:53.428Z,74.13
2019-02-02T05:45:23.490Z,115.70
2019-02-02T05:47:51.930Z,227.80
2019-02-02T05:50:22.382Z,74.93
2019-02-02T05:52:50.968Z,219.67
2019-02-02T05:55:21.241Z,170.10
2019-02-02T05:57:49.656Z,113.30
2019-02-02T06:00:22.514Z,119.90
2019-02-02T06:02:50.937Z,165.73
2019-02-02T06:05:19.365Z,169.40
2019-02-02T06:07:47.780Z,323.07
2019-02-02T06:10:20.201Z,113.53
2019-02-02T06:12:48.618Z,136.47
2019-02-02T06:15:17.378Z,67.63
2019-02-02T06:17:46.066Z,52.03
2019-02-02T06:20:16.407Z,35.83
2019-02-02T06:22:44.821Z,38.87
2019-02-02T06:25:15.199Z,69.37
2019-02-02T06:27:43.962Z,62.67
2019-02-02T06:30:18.035Z,79.83
2019-02-02T06:32:46.562Z,69.33
2019-02-02T06:35:16.364Z,49.40
2019-02-02T06:37:45.054Z,71.00
2019-02-02T06:40:15.610Z,53.97
2019-02-02T06:42:44.101Z,126.47
2019-02-02T06:45:30.179Z,64.40
2019-02-02T06:47:58.741Z,34.43
2019-02-02T06:50:27.171Z,35.93
2019-02-02T06:52:55.955Z,33.97
2019-02-02T06:55:24.391Z,35.37
2019-02-02T06:57:52.823Z,33.83
2019-02-02T07:00:26.462Z,27.90
2019-02-02T07:02:55.369Z,35.97
2019-02-02T07:05:23.937Z,31.77
2019-02-02T07:07:52.356Z,32.03
2019-02-02T07:10:25.978Z,28.93
2019-02-02T07:12:54.393Z,33.70
2019-02-02T07:15:27.702Z,29.67
2019-02-02T07:17:56.184Z,30.53
2019-02-02T07:20:24.869Z,35.47
2019-02-02T07:22:53.289Z,34.10
2019-02-02T07:25:21.718Z,33.80
2019-02-02T07:27:50.132Z,37.20
2019-02-02T07:30:28.805Z,35.87
2019-02-02T07:32:53.737Z,30.90
2019-02-02T07:35:22.513Z,35.33
2019-02-02T07:37:51.285Z,33.40
2019-02-02T07:40:21.453Z,39.73
2019-02-02T07:42:50.122Z,36.95
2019-02-02T07:45:29.688Z,60.73
2019-02-02T07:47:58.189Z,67.23
2019-02-02T07:50:26.626Z,117.57
2019-02-02T07:52:55.134Z,79.25
2019-02-02T07:55:24.268Z,120.25
2019-02-02T07:57:52.700Z,164.77
2019-02-02T08:00:40.858Z,91.20
2019-02-02T08:03:04.445Z,76.75
2019-02-02T08:05:33.039Z,45.23
2019-02-02T08:08:01.460Z,64.20
2019-02-02T08:10:29.941Z,51.43
2019-02-02T08:12:58.433Z,34.73
2019-02-02T08:15:29.477Z,34.77
2019-02-02T08:17:57.962Z,34.73
2019-02-02T08:20:45.725Z,32.80
2019-02-02T08:23:14.145Z,36.53
2019-02-02T08:25:42.577Z,30.77
2019-02-02T08:28:11.001Z,36.60
2019-02-02T08:30:39.425Z,166.43
2019-02-02T08:33:07.997Z,83.67
2019-02-02T08:35:36.436Z,52.30
2019-02-02T08:38:05.223Z,40.87
2019-02-02T08:40:33.649Z,49.37
2019-02-02T08:43:02.075Z,38.73
2019-02-02T08:45:30.508Z,41.97
2019-02-02T08:47:58.925Z,39.10
2019-02-02T08:50:29.952Z,37.53
2019-02-02T08:52:58.390Z,37.73
2019-02-02T08:55:27.000Z,33.27
2019-02-02T08:57:55.558Z,34.27
2019-02-02T09:00:24.402Z,34.37
2019-02-02T09:02:52.831Z,35.53
2019-02-02T09:05:22.806Z,36.67
2019-02-02T09:07:51.298Z,44.90
2019-02-02T09:10:21.857Z,39.30
2019-02-02T09:12:50.360Z,41.50
2019-02-02T09:15:19.617Z,37.00
2019-02-02T09:17:48.197Z,33.10
2019-02-02T09:20:16.746Z,37.03
2019-02-02T09:22:45.910Z,34.03
2019-02-02T09:25:18.681Z,36.60
2019-02-02T09:27:47.193Z,40.90
2019-02-02T09:30:37.883Z,43.77
2019-02-02T09:33:06.555Z,37.60
2019-02-02T09:35:34.974Z,42.10
2019-02-02T09:38:03.398Z,41.63
2019-02-02T09:40:31.813Z,43.53
2019-02-02T09:43:00.310Z,47.33
2019-02-02T09:45:28.726Z,46.03
2019-02-02T09:47:57.155Z,44.50
2019-02-02T09:50:26.817Z,47.60
2019-02-02T09:52:55.377Z,45.00
2019-02-02T09:55:25.649Z,45.70
2019-02-02T09:57:56.728Z,42.87
2019-02-02T10:00:30.611Z,44.23
2019-02-02T10:02:59.226Z,43.43
2019-02-02T10:05:28.039Z,38.73
2019-02-02T10:07:56.464Z,39.50
2019-02-02T10:10:27.135Z,39.87
2019-02-02T10:12:55.997Z,38.77
2019-02-02T10:15:24.486Z,35.77
2019-02-02T10:17:53.000Z,37.43
2019-02-02T10:20:23.555Z,33.70
2019-02-02T10:22:52.225Z,37.27
2019-02-02T10:25:25.635Z,30.20
2019-02-02T10:27:54.191Z,26.60
2019-02-02T10:30:28.441Z,28.27
2019-02-02T10:32:56.950Z,31.63
2019-02-02T10:35:25.374Z,31.07
2019-02-02T10:37:53.797Z,31.07
2019-02-02T10:40:22.219Z,23.90
2019-02-02T10:42:50.655Z,21.07
2019-02-02T10:45:19.509Z,19.47
2019-02-02T10:47:48.014Z,18.90
2019-02-02T10:50:18.973Z,19.20
2019-02-02T10:52:47.486Z,22.13
2019-02-02T10:55:16.537Z,22.53
2019-02-02T10:57:45.130Z,20.43
2019-02-02T11:00:22.194Z,21.30
2019-02-02T11:02:50.621Z,20.27
2019-02-02T11:05:19.178Z,19.30
2019-02-02T11:07:47.846Z,18.53
2019-02-02T11:10:24.713Z,15.40
2019-02-02T11:12:53.330Z,18.00
2019-02-02T11:15:23.182Z,16.30
2019-02-02T11:17:51.701Z,18.27
2019-02-02T11:20:28.708Z,18.17
2019-02-02T11:22:57.328Z,15.70
2019-02-02T11:25:25.911Z,16.70
2019-02-02T11:27:54.495Z,16.97
2019-02-02T11:30:24.820Z,17.40
2019-02-02T11:32:53.265Z,17.20
2019-02-02T11:35:22.228Z,17.00
2019-02-02T11:37:50.646Z,20.00
2019-02-02T11:40:35.746Z,17.63
2019-02-02T11:43:04.758Z,18.83
2019-02-02T11:45:33.315Z,21.13
2019-02-02T11:48:01.720Z,17.67
2019-02-02T11:50:30.153Z,19.50
2019-02-02T11:52:58.588Z,19.90
2019-02-02T11:55:28.449Z,18.23
2019-02-02T11:57:56.941Z,20.47
2019-02-02T12:00:27.413Z,23.40
2019-02-02T12:02:55.885Z,26.37
2019-02-02T12:05:24.630Z,27.80
2019-02-02T12:07:53.051Z,26.07
2019-02-02T12:10:42.333Z,28.50
2019-02-02T12:13:10.771Z,29.33
2019-02-02T12:15:38.924Z,26.13
2019-02-02T12:18:07.082Z,24.00
2019-02-02T12:20:35.179Z,25.70
2019-02-02T12:23:03.304Z,20.73
2019-02-02T12:25:31.444Z,18.47
2019-02-02T12:27:59.548Z,16.23
2019-02-02T12:30:30.642Z,13.23
2019-02-02T12:32:58.734Z,12.67
2019-02-02T12:35:28.829Z,10.17
2019-02-02T12:37:57.325Z,10.10
2019-02-02T12:40:27.191Z,10.80
2019-02-02T12:42:55.785Z,11.73
2019-02-02T12:45:27.898Z,9.87
2019-02-02T12:47:56.412Z,8.87
2019-02-02T12:50:24.836Z,9.30
2019-02-02T12:52:53.272Z,11.63
2019-02-02T12:55:21.739Z,10.30
2019-02-02T12:57:50.332Z,8.43
2019-02-02T13:00:20.196Z,6.00
2019-02-02T13:02:48.693Z,7.27
2019-02-02T13:05:20.091Z,5.83
2019-02-02T13:07:48.579Z,4.30
2019-02-02T13:10:25.371Z,9.40
2019-02-02T13:12:54.324Z,4.50
2019-02-02T13:15:22.813Z,6.30
2019-02-02T13:17:51.377Z,4.67
2019-02-02T13:20:20.174Z,4.43
2019-02-02T13:22:48.589Z,3.53
2019-02-02T13:25:19.566Z,3.60
2019-02-02T13:27:48.217Z,3.40
2019-02-02T13:30:31.356Z,4.50
2019-02-02T13:32:59.769Z,3.90
2019-02-02T13:35:30.129Z,3.93
2019-02-02T13:37:58.606Z,3.03
2019-02-02T13:40:27.041Z,2.73
2019-02-02T13:42:55.460Z,3.13
2019-02-02T13:45:24.013Z,2.97
2019-02-02T13:47:52.594Z,3.00
2019-02-02T13:50:21.382Z,2.37
2019-02-02T13:52:51.402Z,3.77
2019-02-02T13:55:19.880Z,3.97
2019-02-02T13:57:48.301Z,3.90
2019-02-02T14:00:19.717Z,3.70
2019-02-02T14:02:48.144Z,4.57
2019-02-02T14:05:17.700Z,4.20
2019-02-02T14:07:46.266Z,3.90
2019-02-02T14:10:23.529Z,4.20
2019-02-02T14:12:51.958Z,3.20
2019-02-02T14:15:20.441Z,3.07
2019-02-02T14:17:48.866Z,3.00
2019-02-02T14:20:17.413Z,3.67
2019-02-02T14:22:46.130Z,2.73
2019-02-02T14:25:16.383Z,2.77
2019-02-02T14:27:44.899Z,3.07
2019-02-02T14:30:19.097Z,3.30
2019-02-02T14:32:47.521Z,4.10
2019-02-02T14:35:17.977Z,2.83
2019-02-02T14:37:46.398Z,3.63
2019-02-02T14:40:16.911Z,3.47
2019-02-02T14:42:45.401Z,4.53
2019-02-02T14:45:16.821Z,5.30
2019-02-02T14:47:45.243Z,4.00
2019-02-02T14:50:18.725Z,5.47
2019-02-02T14:52:46.479Z,8.43
2019-02-02T14:55:23.174Z,14.83
2019-02-02T14:57:51.614Z,17.00
2019-02-02T15:00:22.334Z,18.13
2019-02-02T15:02:50.941Z,20.43
2019-02-02T15:05:21.299Z,20.20
2019-02-02T15:07:50.162Z,21.67
2019-02-02T15:10:19.330Z,24.60
2019-02-02T15:12:47.740Z,22.63
2019-02-02T15:15:17.513Z,20.63
2019-02-02T15:17:46.403Z,21.10
2019-02-02T15:20:17.545Z,22.47
2019-02-02T15:22:45.970Z,22.00
2019-02-02T15:25:14.633Z,21.87
2019-02-02T15:27:43.049Z,21.17
2019-02-02T15:30:17.461Z,23.23
2019-02-02T15:32:45.880Z,24.90
2019-02-02T15:35:14.494Z,23.17
2019-02-02T15:37:42.991Z,24.50
2019-02-02T15:40:14.330Z,23.40
2019-02-02T15:42:43.025Z,24.47
2019-02-02T15:45:19.698Z,24.70
2019-02-02T15:47:48.194Z,24.67
2019-02-02T15:50:17.379Z,26.33
2019-02-02T15:52:46.755Z,24.20
2019-02-02T15:55:23.145Z,27.63
2019-02-02T15:57:51.721Z,28.13
2019-02-02T16:00:22.973Z,24.33
2019-02-02T16:02:51.437Z,26.23
2019-02-02T16:05:21.009Z,27.70
2019-02-02T16:07:49.429Z,40.80
2019-02-02T16:10:26.337Z,31.97
2019-02-02T16:12:54.759Z,31.30
2019-02-02T16:15:23.270Z,30.13
2019-02-02T16:17:51.712Z,32.33
2019-02-02T16:20:29.243Z,33.83
2019-02-02T16:22:57.705Z,35.57
2019-02-02T16:25:26.184Z,37.40
2019-02-02T16:27:54.689Z,36.67
2019-02-02T16:30:28.095Z,35.37
2019-02-02T16:32:56.782Z,36.30
2019-02-02T16:35:25.288Z,33.57
2019-02-02T16:37:53.709Z,38.53
2019-02-02T16:40:24.756Z,36.17
2019-02-02T16:42:53.861Z,35.33
2019-02-02T16:45:27.797Z,37.97
2019-02-02T16:47:56.288Z,38.13
2019-02-02T16:50:25.160Z,39.63
2019-02-02T16:52:54.016Z,40.30
2019-02-02T16:55:22.590Z,41.13
2019-02-02T16:57:51.089Z,47.73
2019-02-02T17:00:22.224Z,43.43
2019-02-02T17:02:51.062Z,44.40
2019-02-02T17:05:19.641Z,45.27
2019-02-02T17:07:48.057Z,45.27
2019-02-02T17:10:24.610Z,44.27
2019-02-02T17:12:53.039Z,46.63
2019-02-02T17:15:22.361Z,48.97
2019-02-02T17:17:50.857Z,52.33
2019-02-02T17:20:22.197Z,49.10
2019-02-02T17:22:50.618Z,55.37
2019-02-02T17:25:22.686Z,52.03
2019-02-02T17:27:50.835Z,57.57
2019-02-02T17:30:23.845Z,63.93
2019-02-02T17:32:54.017Z,59.83
2019-02-02T17:35:22.534Z,52.90
2019-02-02T17:37:50.967Z,55.43
2019-02-02T17:40:28.067Z,59.27
2019-02-02T17:42:56.557Z,60.30
2019-02-02T17:45:25.049Z,63.47
2019-02-02T17:47:53.510Z,56.37
2019-02-02T17:50:26.153Z,59.23
2019-02-02T17:52:54.590Z,57.27
2019-02-02T17:55:23.161Z,54.53
2019-02-02T17:57:51.591Z,54.60
2019-02-02T18:00:39.078Z,57.23
2019-02-02T18:03:07.609Z,53.57
2019-02-02T18:05:36.043Z,59.43
2019-02-02T18:08:04.936Z,58.50
2019-02-02T18:10:33.423Z,58.20
2019-02-02T18:13:01.878Z,61.63
2019-02-02T18:15:30.378Z,61.23
2019-02-02T18:17:58.806Z,48.03
2019-02-02T18:20:27.225Z,47.17
2019-02-02T18:22:55.660Z,48.00
2019-02-02T18:25:24.096Z,44.70
2019-02-02T18:27:52.521Z,43.17
2019-02-02T18:30:23.751Z,43.43
2019-02-02T18:32:52.260Z,45.00
2019-02-02T18:35:21.058Z,51.67
2019-02-02T18:37:49.489Z,44.97
2019-02-02T18:40:24.854Z,48.60
2019-02-02T18:42:53.373Z,60.97
2019-02-02T18:45:29.581Z,55.43
2019-02-02T18:47:58.468Z,50.10
2019-02-02T18:50:26.868Z,43.53
2019-02-02T18:52:56.738Z,53.13
2019-02-02T18:55:28.530Z,49.87
2019-02-02T18:57:57.097Z,46.97
2019-02-02T19:00:25.580Z,46.87
2019-02-02T19:02:54.150Z,46.73
2019-02-02T19:05:22.566Z,47.48
2019-02-02T19:07:51.393Z,49.73
2019-02-02T19:10:22.858Z,62.23
2019-02-02T19:12:51.349Z,67.50
2019-02-02T19:15:19.861Z,62.90
2019-02-02T19:17:48.604Z,57.00
2019-02-02T19:20:40.664Z,61.73
2019-02-02T19:23:09.229Z,46.37
2019-02-02T19:25:37.591Z,54.53
2019-02-02T19:28:05.961Z,61.07
2019-02-02T19:30:35.821Z,58.43
2019-02-02T19:33:04.794Z,71.40
2019-02-02T19:35:33.650Z,64.50
2019-02-02T19:38:02.519Z,101.53
2019-02-02T19:40:31.009Z,80.83
2019-02-02T19:43:00.805Z,86.30
2019-02-02T19:45:29.377Z,91.00
2019-02-02T19:47:58.168Z,86.53
2019-02-02T19:50:27.437Z,93.13
2019-02-02T19:52:55.824Z,76.97
2019-02-02T19:55:24.080Z,91.27
2019-02-02T19:57:52.848Z,93.17
2019-02-02T20:00:23.611Z,73.50
2019-02-02T20:02:53.048Z,59.30
2019-02-02T20:05:28.697Z,58.53
2019-02-02T20:07:55.331Z,70.57
2019-02-02T20:10:24.000Z,61.90
2019-02-02T20:12:53.471Z,55.30
2019-02-02T20:15:24.589Z,57.93
2019-02-02T20:17:53.973Z,63.30
2019-02-02T20:20:24.697Z,73.73
2019-02-02T20:22:53.565Z,68.87
2019-02-02T20:25:21.792Z,73.93
2019-02-02T20:27:50.069Z,73.27
2019-02-02T20:30:23.213Z,76.13
2019-02-02T20:32:52.308Z,63.17
2019-02-02T20:35:21.944Z,59.60
2019-02-02T20:37:52.685Z,48.60
2019-02-02T20:40:23.788Z,48.60
2019-02-02T20:42:52.845Z,64.27
2019-02-02T20:45:22.365Z,62.07
2019-02-02T20:47:51.222Z,65.83
2019-02-02T20:50:19.489Z,49.97
2019-02-02T20:52:48.364Z,45.80
2019-02-02T20:55:22.077Z,44.40
2019-02-02T20:57:51.229Z,41.73
2019-02-02T21:00:20.929Z,43.33
2019-02-02T21:02:49.440Z,39.37
2019-02-02T21:05:17.612Z,39.63
2019-02-02T21:07:46.165Z,41.23
2019-02-02T21:10:22.317Z,51.60
2019-02-02T21:12:50.974Z,48.73
2019-02-02T21:15:19.362Z,55.67
2019-02-02T21:17:47.954Z,61.50
2019-02-02T21:20:22.380Z,65.23
2019-02-02T21:22:51.037Z,43.83
2019-02-02T21:25:19.625Z,51.77
2019-02-02T21:27:47.796Z,44.80
2019-02-02T21:30:40.191Z,42.87
2019-02-02T21:33:08.324Z,40.40
2019-02-02T21:35:36.815Z,44.93
2019-02-02T21:38:05.585Z,50.50
2019-02-02T21:40:35.055Z,66.03
2019-02-02T21:43:04.009Z,56.13
2019-02-02T21:45:32.105Z,73.20
2019-02-02T21:48:00.213Z,202.77
2019-02-02T21:50:28.641Z,125.70
2019-02-02T21:52:57.078Z,70.87
2019-02-02T21:55:29.841Z,64.03
2019-02-02T21:57:57.956Z,55.87
2019-02-02T22:00:34.510Z,51.00
2019-02-02T22:03:02.930Z,57.87
2019-02-02T22:05:31.449Z,63.17
2019-02-02T22:07:59.945Z,68.33
2019-02-02T22:10:28.053Z,57.23
2019-02-02T22:12:56.833Z,56.97
2019-02-02T22:15:25.812Z,62.63
2019-02-02T22:17:54.237Z,71.83
2019-02-02T22:20:22.668Z,68.70
2019-02-02T22:22:50.784Z,60.20
2019-02-02T22:25:27.337Z,75.87
2019-02-02T22:27:55.762Z,86.03
2019-02-02T22:30:29.029Z,59.87
2019-02-02T22:32:57.530Z,54.63
2019-02-02T22:35:26.105Z,57.77
2019-02-02T22:37:54.831Z,53.63
2019-02-02T22:40:25.204Z,52.60
2019-02-02T22:42:54.046Z,49.50
2019-02-02T22:45:22.681Z,47.17
2019-02-02T22:47:51.241Z,49.90
2019-02-02T22:50:20.316Z,51.43
2019-02-02T22:52:48.885Z,47.50
2019-02-02T22:55:20.293Z,52.30
2019-02-02T22:57:48.886Z,49.70
2019-02-02T23:00:20.165Z,48.53
2019-02-02T23:02:48.585Z,56.37
2019-02-02T23:05:18.405Z,42.83
2019-02-02T23:07:50.193Z,45.30
2019-02-02T23:10:42.933Z,52.30
2019-02-02T23:13:32.832Z,43.93
2019-02-02T23:16:05.138Z,50.57
2019-02-02T23:18:33.235Z,51.30
2019-02-02T23:21:01.445Z,49.03
2019-02-02T23:23:29.880Z,42.70
2019-02-02T23:25:58.384Z,40.07
2019-02-02T23:28:26.478Z,45.10
2019-02-02T23:30:55.545Z,47.17
2019-02-02T23:33:24.207Z,46.83
2019-02-02T23:35:52.625Z,48.43
2019-02-02T23:38:21.054Z,36.90
2019-02-02T23:40:49.513Z,43.83
2019-02-02T23:43:17.603Z,47.27
2019-02-02T23:45:46.090Z,44.03
2019-02-02T23:48:14.631Z,46.90
2019-02-02T23:50:43.005Z,47.90
2019-02-02T23:53:11.106Z,52.33
2019-02-02T23:55:39.524Z,52.13
2019-02-02T23:58:07.636Z,49.70
